Time;durP1;ratioP1;P1;durP2;ratioP2;P2;SDS_P1;SDS_P2;PMS_P1;PMS_P2;Temp;Humidity;BMP_temperature;BMP_pressure;BME280_temperature;BME280_humidity;BME280_pressure;Samples;Min_cycle;Max_cycle;Signal;HPM_P1;HPM_P2
2023/01/31 00:00:49;;;;;;;11.60;2.70;;;3.40;99.90;;;;;;4972842;28;20173;-66
2023/01/31 00:03:14;;;;;;;13.00;4.20;;;3.40;99.90;;;;;;4989125;28;20529;-72
2023/01/31 00:05:40;;;;;;;5.50;3.23;;;3.40;99.90;;;;;;4991370;28;20661;-72
2023/01/31 00:08:06;;;;;;;9.60;3.90;;;3.40;99.90;;;;;;4979271;28;20192;-66
2023/01/31 00:10:31;;;;;;;8.03;3.30;;;3.40;99.90;;;;;;4973670;28;20174;-67
2023/01/31 00:12:57;;;;;;;6.40;2.80;;;3.40;99.90;;;;;;4985743;28;20252;-66
2023/01/31 00:15:23;;;;;;;10.37;2.53;;;3.40;99.90;;;;;;4981428;28;20201;-71
2023/01/31 00:17:49;;;;;;;7.17;2.30;;;3.30;99.90;;;;;;4982516;28;20193;-71
2023/01/31 00:20:15;;;;;;;11.30;3.20;;;3.40;99.90;;;;;;4993224;28;20473;-67
2023/01/31 00:22:40;;;;;;;3.27;2.20;;;3.40;99.90;;;;;;4984026;28;20174;-72
2023/01/31 00:25:06;;;;;;;8.20;2.53;;;3.40;99.90;;;;;;4972640;28;20284;-71
2023/01/31 00:27:32;;;;;;;6.10;2.20;;;3.30;99.90;;;;;;4973725;28;20195;-66
2023/01/31 00:29:58;;;;;;;10.60;2.40;;;3.30;99.90;;;;;;4985671;28;20489;-72
2023/01/31 00:32:25;;;;;;;17.60;2.53;;;3.30;99.90;;;;;;4990771;28;20192;-70
2023/01/31 00:34:52;;;;;;;10.00;3.43;;;3.30;99.90;;;;;;4991434;28;20193;-66
2023/01/31 00:37:18;;;;;;;7.97;2.90;;;3.20;99.90;;;;;;4973590;28;20437;-71
2023/01/31 00:39:44;;;;;;;3.07;2.57;;;3.30;99.90;;;;;;4973357;28;20460;-67
2023/01/31 00:42:10;;;;;;;4.10;2.73;;;3.30;99.90;;;;;;4989054;28;20432;-72
2023/01/31 00:44:36;;;;;;;6.00;3.03;;;3.20;99.90;;;;;;4991767;28;20193;-66
2023/01/31 00:47:01;;;;;;;4.60;2.70;;;3.30;99.90;;;;;;4976950;28;20542;-67
2023/01/31 00:49:27;;;;;;;10.43;2.37;;;3.30;99.90;;;;;;4992739;28;20180;-72
2023/01/31 00:51:53;;;;;;;5.47;2.17;;;3.30;99.90;;;;;;4973718;28;20797;-71
2023/01/31 00:54:18;;;;;;;4.50;1.70;;;3.20;99.90;;;;;;4971405;28;20263;-71
2023/01/31 00:56:44;;;;;;;3.20;2.53;;;3.20;99.90;;;;;;4987671;28;20177;-66
2023/01/31 00:59:10;;;;;;;6.57;3.20;;;3.20;99.90;;;;;;4992445;28;20618;-72
2023/01/31 01:01:36;;;;;;;9.77;2.80;;;3.20;99.90;;;;;;4980396;28;20256;-72
2023/01/31 01:04:02;;;;;;;5.60;3.03;;;3.20;99.90;;;;;;4983220;28;20527;-71
2023/01/31 01:06:28;;;;;;;6.43;3.33;;;3.20;99.90;;;;;;4974234;28;20456;-66
2023/01/31 01:08:56;;;;;;;10.23;2.50;;;3.20;99.90;;;;;;4972679;28;20406;-67
2023/01/31 01:11:28;;;;;;;11.93;2.67;;;3.20;99.90;;;;;;4972761;28;20528;-66
2023/01/31 01:13:55;;;;;;;5.10;3.40;;;3.20;99.90;;;;;;4992362;28;20432;-73
2023/01/31 01:16:35;;;;;;;14.13;3.27;;;3.20;99.90;;;;;;4977030;28;20456;-72
2023/01/31 01:19:06;;;;;;;11.47;2.20;;;3.20;99.90;;;;;;4972762;28;20448;-67
2023/01/31 01:21:37;;;;;;;10.00;2.60;;;3.20;99.90;;;;;;4986755;28;20465;-66
2023/01/31 01:24:04;;;;;;;7.40;2.60;;;3.20;99.90;;;;;;4992043;28;20397;-66
2023/01/31 01:26:32;;;;;;;4.33;2.50;;;3.10;99.90;;;;;;4976842;28;20846;-66
2023/01/31 01:28:59;;;;;;;7.50;1.73;;;3.10;99.90;;;;;;4971880;28;20416;-66
2023/01/31 01:31:28;;;;;;;5.57;2.10;;;3.10;99.90;;;;;;4984058;28;20517;-65
2023/01/31 01:33:57;;;;;;;6.30;3.07;;;3.10;99.90;;;;;;4988546;28;20526;-66
2023/01/31 01:36:23;;;;;;;7.17;2.57;;;3.10;99.90;;;;;;4990268;28;20452;-72
2023/01/31 01:38:49;;;;;;;10.50;2.50;;;3.10;99.90;;;;;;4990877;28;20483;-66
2023/01/31 01:41:15;;;;;;;5.03;2.30;;;3.20;99.90;;;;;;4980952;28;20459;-72
2023/01/31 01:43:48;;;;;;;7.70;2.73;;;3.30;99.90;;;;;;4989007;28;20181;-67
2023/01/31 01:46:40;;;;;;;6.60;2.10;;;3.40;99.90;;;;;;4980106;28;20448;-66
2023/01/31 01:49:28;;;;;;;4.00;2.50;;;3.40;99.90;;;;;;4972285;28;20832;-67
2023/01/31 01:51:55;;;;;;;9.40;2.20;;;3.40;99.90;;;;;;4985924;28;20428;-72
2023/01/31 01:54:26;;;;;;;4.03;2.33;;;3.40;99.90;;;;;;4990836;28;20416;-68
2023/01/31 01:56:58;;;;;;;18.97;2.57;;;3.40;99.90;;;;;;4977441;28;20424;-72
2023/01/31 02:00:09;;;;;;;10.80;4.23;;;3.40;99.90;;;;;;4972129;28;20530;-73
2023/01/31 02:02:35;;;;;;;15.20;2.80;;;3.40;99.90;;;;;;5069738;28;20797;-67
2023/01/31 02:05:02;;;;;;;7.97;2.47;;;3.40;99.90;;;;;;4985645;28;20456;-72
2023/01/31 02:07:28;;;;;;;12.23;2.83;;;3.40;99.90;;;;;;4991191;28;20401;-72
2023/01/31 02:10:20;;;;;;;4.97;2.70;;;3.40;99.90;;;;;;4990929;28;20428;-68
2023/01/31 02:12:46;;;;;;;4.93;2.27;;;3.40;99.90;;;;;;4982071;28;20448;-72
2023/01/31 02:15:12;;;;;;;12.50;2.67;;;3.30;99.90;;;;;;4971073;28;20433;-72
2023/01/31 02:17:37;;;;;;;5.23;2.43;;;3.30;99.90;;;;;;4972672;28;20181;-67
2023/01/31 02:20:30;;;;;;;14.20;3.20;;;3.40;99.90;;;;;;4991350;28;20165;-73
2023/01/31 02:23:34;;;;;;;7.90;2.67;;;3.40;99.90;;;;;;4976599;28;20677;-66
2023/01/31 02:26:43;;;;;;;7.80;2.60;;;3.40;99.90;;;;;;4971265;28;21024;-67
2023/01/31 02:29:18;;;;;;;5.67;3.03;;;3.40;99.90;;;;;;4971876;28;20465;-72
2023/01/31 02:32:22;;;;;;;16.10;2.73;;;3.40;99.90;;;;;;4971161;28;20443;-67
2023/01/31 02:34:50;;;;;;;5.83;2.47;;;3.40;99.90;;;;;;4971432;28;20440;-72
2023/01/31 02:37:38;;;;;;;4.37;2.50;;;3.40;99.90;;;;;;4971606;28;20941;-72
2023/01/31 02:40:21;;;;;;;6.73;2.77;;;3.40;99.90;;;;;;4971367;28;20902;-72
2023/01/31 02:42:49;;;;;;;4.93;2.77;;;3.40;99.90;;;;;;4985110;28;20463;-67
2023/01/31 02:45:21;;;;;;;7.13;3.37;;;3.30;99.90;;;;;;4986992;28;20510;-67
2023/01/31 02:47:54;;;;;;;5.60;3.40;;;3.30;99.90;;;;;;4990883;28;20396;-67
2023/01/31 02:50:35;;;;;;;14.33;2.87;;;3.40;99.90;;;;;;4977059;28;20424;-66
2023/01/31 02:53:15;;;;;;;10.17;3.10;;;3.40;99.90;;;;;;4986716;28;20819;-73
2023/01/31 02:56:16;;;;;;;12.23;3.00;;;3.50;99.90;;;;;;4974919;28;20426;-68
2023/01/31 02:58:48;;;;;;;5.97;2.33;;;3.50;99.90;;;;;;4971273;28;20447;-70
2023/01/31 03:01:19;;;;;;;12.07;3.77;;;3.60;99.90;;;;;;4987115;28;20423;-71
2023/01/31 03:03:45;;;;;;;12.80;2.90;;;3.60;99.90;;;;;;4990705;28;20487;-72
2023/01/31 03:06:24;;;;;;;17.37;2.80;;;3.60;99.90;;;;;;4971970;28;20533;-71
2023/01/31 03:09:24;;;;;;;14.20;3.13;;;3.70;99.90;;;;;;4971547;28;20761;-72
2023/01/31 03:12:29;;;;;;;11.80;3.13;;;3.70;99.90;;;;;;4971110;28;20419;-73
2023/01/31 03:15:01;;;;;;;17.20;3.73;;;3.70;99.90;;;;;;4980121;28;20444;-66
2023/01/31 03:17:53;;;;;;;12.00;2.43;;;3.80;99.90;;;;;;4990576;28;20415;-72
2023/01/31 03:20:35;;;;;;;8.00;2.10;;;3.80;99.90;;;;;;4987615;28;20439;-73
2023/01/31 03:23:09;;;;;;;12.70;2.93;;;3.80;99.90;;;;;;4990737;28;20389;-72
2023/01/31 03:25:37;;;;;;;8.10;2.83;;;3.80;99.90;;;;;;4970926;28;20471;-66
2023/01/31 03:28:08;;;;;;;11.40;2.30;;;3.80;99.90;;;;;;4971004;28;20397;-67
2023/01/31 03:30:46;;;;;;;7.87;3.40;;;3.80;99.90;;;;;;4986820;28;20522;-66
2023/01/31 03:33:19;;;;;;;7.23;2.10;;;3.90;99.90;;;;;;4990506;28;20401;-73
2023/01/31 03:35:50;;;;;;;7.20;3.60;;;3.90;99.90;;;;;;4971052;28;21012;-68
2023/01/31 03:38:19;;;;;;;12.53;3.80;;;3.90;99.90;;;;;;4969285;28;20980;-66
2023/01/31 03:41:00;;;;;;;6.43;3.80;;;3.80;99.90;;;;;;4987057;28;20443;-72
2023/01/31 03:43:36;;;;;;;16.63;3.37;;;3.80;99.90;;;;;;4990328;28;20400;-66
2023/01/31 03:46:18;;;;;;;10.80;3.00;;;3.80;99.90;;;;;;4989097;28;20443;-67
2023/01/31 03:48:47;;;;;;;7.90;2.40;;;3.80;99.90;;;;;;4989691;28;20426;-67
2023/01/31 03:51:18;;;;;;;4.57;1.90;;;3.80;99.90;;;;;;4987010;28;20432;-67
2023/01/31 03:53:47;;;;;;;7.80;3.17;;;3.80;99.90;;;;;;4992744;28;20423;-72
2023/01/31 03:56:39;;;;;;;7.80;3.13;;;3.80;99.90;;;;;;4973163;28;20475;-67
2023/01/31 03:59:18;;;;;;;15.87;2.87;;;3.70;99.90;;;;;;4983460;28;20454;-69
2023/01/31 04:01:48;;;;;;;4.43;2.23;;;3.80;99.90;;;;;;4974028;28;20753;-68
2023/01/31 04:04:21;;;;;;;16.27;2.50;;;3.70;99.90;;;;;;4983719;28;20453;-72
2023/01/31 04:06:47;;;;;;;8.93;2.57;;;3.80;99.90;;;;;;4993417;28;20991;-67
2023/01/31 04:09:13;;;;;;;4.23;2.77;;;3.80;99.90;;;;;;4982941;28;20500;-67
2023/01/31 04:11:40;;;;;;;7.53;3.33;;;3.80;99.90;;;;;;4973270;28;20439;-74
2023/01/31 04:14:08;;;;;;;7.80;2.97;;;3.80;99.90;;;;;;4981269;28;20230;-67
2023/01/31 04:16:33;;;;;;;10.10;3.23;;;3.80;99.90;;;;;;4992458;28;20396;-67
2023/01/31 04:18:59;;;;;;;7.23;3.23;;;3.80;99.90;;;;;;4985243;28;20487;-73
2023/01/31 04:21:25;;;;;;;11.47;2.80;;;3.80;99.90;;;;;;4990505;28;20197;-67
2023/01/31 04:23:51;;;;;;;10.90;2.90;;;3.80;99.90;;;;;;4984296;28;20174;-67
2023/01/31 04:26:16;;;;;;;7.37;2.73;;;3.80;99.90;;;;;;4972774;28;20197;-67
2023/01/31 04:28:42;;;;;;;12.47;2.63;;;3.80;99.90;;;;;;4977623;28;20196;-68
2023/01/31 04:31:08;;;;;;;4.70;2.87;;;3.90;99.90;;;;;;4971875;28;20185;-73
2023/01/31 04:33:34;;;;;;;13.97;3.13;;;3.90;99.90;;;;;;4973773;28;20260;-73
2023/01/31 04:36:00;;;;;;;10.97;4.07;;;3.90;99.90;;;;;;4972486;28;20574;-67
2023/01/31 04:38:25;;;;;;;8.17;2.70;;;3.90;99.90;;;;;;4982423;28;20599;-70
2023/01/31 04:40:51;;;;;;;18.07;3.77;;;4.00;99.90;;;;;;4991946;28;20201;-66
2023/01/31 04:43:17;;;;;;;5.47;2.40;;;4.00;99.90;;;;;;4985060;28;20170;-73
2023/01/31 04:45:43;;;;;;;8.40;2.83;;;4.00;99.90;;;;;;4972505;28;20542;-69
2023/01/31 04:48:09;;;;;;;5.97;2.80;;;4.00;99.90;;;;;;4978229;28;20665;-67
2023/01/31 04:50:35;;;;;;;9.10;2.80;;;4.00;99.90;;;;;;4991599;28;20436;-67
2023/01/31 04:53:00;;;;;;;13.60;3.10;;;3.90;99.90;;;;;;4987293;28;20251;-74
2023/01/31 04:55:26;;;;;;;11.43;3.13;;;4.00;99.90;;;;;;4972303;28;20196;-67
2023/01/31 04:57:52;;;;;;;7.00;2.70;;;4.00;99.90;;;;;;4975041;28;20166;-67
2023/01/31 05:00:18;;;;;;;9.40;2.60;;;4.00;99.90;;;;;;4978509;28;20437;-74
2023/01/31 05:02:44;;;;;;;11.53;2.80;;;4.00;99.90;;;;;;4971470;28;20269;-67
2023/01/31 05:05:11;;;;;;;13.40;2.80;;;4.00;99.90;;;;;;4989088;28;20428;-67
2023/01/31 05:07:38;;;;;;;11.13;2.63;;;4.00;99.90;;;;;;4992570;28;20408;-73
2023/01/31 05:10:04;;;;;;;5.20;1.90;;;4.10;99.90;;;;;;4974219;28;20409;-67
2023/01/31 05:12:30;;;;;;;5.23;2.27;;;4.10;99.90;;;;;;4972610;28;20424;-74
2023/01/31 05:14:56;;;;;;;10.57;3.37;;;4.10;99.90;;;;;;4987143;28;20492;-74
2023/01/31 05:17:24;;;;;;;8.57;3.10;;;4.10;99.90;;;;;;4992333;28;20638;-74
2023/01/31 05:19:51;;;;;;;5.00;2.10;;;4.20;99.90;;;;;;4976604;28;20457;-73
2023/01/31 05:22:21;;;;;;;5.00;2.20;;;4.20;99.90;;;;;;4975832;28;20427;-73
2023/01/31 05:24:47;;;;;;;3.33;2.00;;;4.10;99.90;;;;;;4976102;28;20440;-73
2023/01/31 05:27:13;;;;;;;7.30;2.60;;;4.10;99.90;;;;;;4972634;28;20440;-74
2023/01/31 05:29:38;;;;;;;10.47;2.77;;;4.10;99.90;;;;;;4984992;28;20444;-74
2023/01/31 05:32:04;;;;;;;5.63;3.23;;;4.20;99.90;;;;;;4982695;28;20181;-74
2023/01/31 05:34:32;;;;;;;16.20;4.80;;;4.20;99.90;;;;;;4977353;28;20200;-67
2023/01/31 05:36:58;;;;;;;11.70;2.80;;;4.20;99.90;;;;;;4991156;28;20458;-74
2023/01/31 05:39:24;;;;;;;6.83;2.23;;;4.20;99.90;;;;;;4991868;28;20444;-75
2023/01/31 05:41:51;;;;;;;6.70;2.83;;;4.20;99.90;;;;;;4985894;28;20500;-69
2023/01/31 05:44:18;;;;;;;9.83;2.30;;;4.20;99.90;;;;;;4990885;28;20413;-73
2023/01/31 05:46:44;;;;;;;18.03;3.03;;;4.20;99.90;;;;;;4987044;28;20429;-75
2023/01/31 05:49:11;;;;;;;18.53;3.67;;;4.30;99.90;;;;;;4972355;28;20470;-71
2023/01/31 05:51:37;;;;;;;14.13;3.60;;;4.30;99.90;;;;;;4974709;28;20431;-74
2023/01/31 05:54:03;;;;;;;11.27;3.60;;;4.30;1.00;;;;;;4990547;28;20432;-69
2023/01/31 05:56:29;;;;;;;15.63;4.03;;;4.30;1.00;;;;;;4989909;28;20439;-74
2023/01/31 05:58:55;;;;;;;8.27;3.67;;;4.30;1.00;;;;;;4971684;28;20519;-74
2023/01/31 06:01:23;;;;;;;22.53;6.67;;;4.30;1.00;;;;;;4982492;28;20429;-74
2023/01/31 06:03:49;;;;;;;13.07;4.00;;;4.30;1.00;;;;;;4971962;28;20525;-68
2023/01/31 06:06:15;;;;;;;19.07;3.27;;;4.30;1.00;;;;;;4971266;28;20485;-67
2023/01/31 06:08:41;;;;;;;7.53;3.33;;;4.30;1.00;;;;;;4983861;28;21104;-74
2023/01/31 06:11:10;;;;;;;14.47;3.07;;;4.40;1.00;;;;;;4987681;28;20561;-68
2023/01/31 06:13:36;;;;;;;7.03;3.23;;;4.40;1.00;;;;;;4991496;28;20397;-68
2023/01/31 06:16:01;;;;;;;8.67;3.40;;;4.40;1.00;;;;;;4974618;28;20445;-74
2023/01/31 06:18:27;;;;;;;4.60;2.90;;;4.40;1.00;;;;;;4982945;28;20487;-69
2023/01/31 06:20:53;;;;;;;4.70;2.40;;;4.40;1.00;;;;;;4978599;28;20181;-68
2023/01/31 06:23:19;;;;;;;16.17;3.60;;;4.30;1.00;;;;;;4971247;28;20611;-68
2023/01/31 06:25:49;;;;;;;8.73;3.00;;;4.30;1.00;;;;;;4981642;28;20284;-72
2023/01/31 06:28:15;;;;;;;7.03;2.57;;;4.30;1.00;;;;;;4985972;28;20429;-68
2023/01/31 06:30:40;;;;;;;9.93;3.83;;;4.40;1.00;;;;;;4990334;28;20499;-68
2023/01/31 06:33:06;;;;;;;22.67;2.87;;;4.30;1.00;;;;;;4984163;28;20185;-69
2023/01/31 06:35:32;;;;;;;10.00;2.93;;;4.40;1.00;;;;;;4969946;28;20253;-74
2023/01/31 06:37:58;;;;;;;12.00;4.40;;;4.30;1.00;;;;;;4976344;28;20644;-68
2023/01/31 06:40:24;;;;;;;15.03;2.43;;;4.30;1.00;;;;;;4990564;28;20422;-68
2023/01/31 06:42:50;;;;;;;6.13;4.23;;;4.30;1.00;;;;;;4986260;28;20535;-68
2023/01/31 06:45:16;;;;;;;6.63;2.97;;;4.30;1.00;;;;;;4973458;28;20201;-73
2023/01/31 06:47:44;;;;;;;15.60;3.47;;;4.40;1.00;;;;;;4989271;28;20193;-72
2023/01/31 06:50:10;;;;;;;4.90;2.90;;;4.40;1.00;;;;;;4971499;28;20458;-74
2023/01/31 06:52:36;;;;;;;3.93;2.50;;;4.40;1.00;;;;;;4970012;28;20441;-64
2023/01/31 06:55:02;;;;;;;15.83;2.47;;;4.50;1.00;;;;;;4971023;28;20535;-72
2023/01/31 06:57:27;;;;;;;8.13;3.30;;;4.50;1.00;;;;;;4970836;28;20527;-66
2023/01/31 06:59:53;;;;;;;25.97;4.70;;;4.50;1.00;;;;;;4971446;28;20461;-66
2023/01/31 07:02:19;;;;;;;10.37;2.87;;;4.60;1.00;;;;;;4973574;28;20186;-72
2023/01/31 07:04:44;;;;;;;16.63;3.17;;;4.60;1.00;;;;;;4975524;28;20204;-65
2023/01/31 07:07:10;;;;;;;18.17;4.07;;;4.60;1.00;;;;;;4982253;28;20518;-65
2023/01/31 07:09:36;;;;;;;20.60;3.20;;;4.60;1.00;;;;;;4990020;28;20213;-72
2023/01/31 07:12:02;;;;;;;3.03;2.83;;;4.60;1.00;;;;;;4990626;28;20245;-72
2023/01/31 07:14:27;;;;;;;13.73;4.20;;;4.70;1.00;;;;;;4976756;28;20201;-72
2023/01/31 07:16:53;;;;;;;4.90;3.30;;;4.70;1.00;;;;;;4977025;28;20441;-72
2023/01/31 07:19:19;;;;;;;11.00;4.40;;;4.60;1.00;;;;;;4973713;28;20210;-66
2023/01/31 07:21:46;;;;;;;7.97;3.33;;;4.70;1.00;;;;;;4980171;28;20677;-70
2023/01/31 07:24:11;;;;;;;18.63;3.67;;;4.70;1.00;;;;;;4975678;28;20634;-66
2023/01/31 07:26:37;;;;;;;17.63;3.57;;;4.70;1.00;;;;;;4977993;28;20516;-65
2023/01/31 07:29:03;;;;;;;10.53;3.10;;;4.70;1.00;;;;;;4993232;28;20635;-68
2023/01/31 07:31:28;;;;;;;8.50;2.73;;;4.70;1.00;;;;;;4980426;28;20215;-66
2023/01/31 07:33:54;;;;;;;11.60;3.90;;;4.80;1.00;;;;;;4975789;28;20186;-72
2023/01/31 07:36:25;;;;;;;10.87;3.70;;;4.80;1.00;;;;;;4992805;28;20209;-66
2023/01/31 07:38:54;;;;;;;9.43;3.07;;;4.80;1.00;;;;;;4993487;28;20201;-72
2023/01/31 07:41:20;;;;;;;16.70;3.80;;;4.80;1.00;;;;;;4974958;28;20421;-72
2023/01/31 07:43:45;;;;;;;18.07;4.10;;;4.90;1.00;;;;;;4984185;28;21032;-70
2023/01/31 07:46:11;;;;;;;19.83;4.70;;;4.80;1.00;;;;;;4973493;28;20207;-66
2023/01/31 07:48:38;;;;;;;20.57;4.70;;;4.90;1.00;;;;;;4974391;28;20540;-65
2023/01/31 07:51:04;;;;;;;17.53;4.73;;;5.00;1.00;;;;;;4977538;28;20192;-71
2023/01/31 07:53:32;;;;;;;22.90;5.10;;;4.90;1.00;;;;;;4976177;28;20547;-65
2023/01/31 07:56:10;;;;;;;11.20;3.80;;;5.00;1.00;;;;;;4983903;28;20947;-72
2023/01/31 07:58:37;;;;;;;6.40;2.50;;;5.00;1.00;;;;;;4974164;28;20461;-65
2023/01/31 08:03:47;;;;;;;7.07;3.83;;;5.10;1.00;;;;;;4974031;28;20429;-67
2023/01/31 08:06:13;;;;;;;21.33;4.37;;;5.10;1.00;;;;;;4973080;28;20432;-73
2023/01/31 08:08:41;;;;;;;9.93;3.90;;;5.10;1.00;;;;;;4973417;28;20448;-66
2023/01/31 08:11:07;;;;;;;16.50;5.33;;;5.10;1.00;;;;;;4973885;28;20960;-72
2023/01/31 08:13:36;;;;;;;22.37;5.60;;;5.20;1.00;;;;;;4973454;28;20477;-66
2023/01/31 08:16:04;;;;;;;21.00;6.00;;;5.10;1.00;;;;;;4972848;28;20437;-66
2023/01/31 08:18:30;;;;;;;12.47;4.70;;;5.20;1.00;;;;;;4973102;28;21034;-66
2023/01/31 08:20:56;;;;;;;18.80;6.30;;;5.20;1.00;;;;;;4973351;28;20579;-73
2023/01/31 08:23:23;;;;;;;16.93;5.60;;;5.20;1.00;;;;;;4973729;28;20405;-66
2023/01/31 08:25:48;;;;;;;13.50;5.23;;;5.20;1.00;;;;;;4972250;28;20457;-66
2023/01/31 08:28:14;;;;;;;14.93;4.57;;;5.20;1.00;;;;;;4972215;28;20445;-72
2023/01/31 08:30:41;;;;;;;12.20;5.47;;;5.20;1.00;;;;;;4984329;28;20195;-72
2023/01/31 08:33:09;;;;;;;14.87;6.20;;;5.20;1.00;;;;;;4978249;28;20429;-68
2023/01/31 08:35:34;;;;;;;11.33;6.13;;;5.10;1.00;;;;;;4977208;28;20956;-73
2023/01/31 08:38:00;;;;;;;21.03;5.00;;;5.20;1.00;;;;;;4979493;28;20447;-68
2023/01/31 08:40:26;;;;;;;9.60;4.83;;;5.20;1.00;;;;;;4972960;28;20252;-71
2023/01/31 08:43:01;;;;;;;18.40;5.47;;;5.20;1.00;;;;;;4973465;28;20189;-68
2023/01/31 08:45:28;;;;;;;13.80;5.40;;;5.10;1.00;;;;;;4971918;28;20202;-73
2023/01/31 08:47:55;;;;;;;12.43;5.00;;;5.20;1.00;;;;;;4973317;28;20407;-72
2023/01/31 08:50:23;;;;;;;17.60;4.83;;;5.10;1.00;;;;;;4973145;28;20918;-70
2023/01/31 08:52:59;;;;;;;16.40;5.00;;;5.10;10.90;;;;;;4972926;28;20429;-73
2023/01/31 08:55:25;;;;;;;5.80;4.00;;;5.10;29.20;;;;;;4976221;28;20520;-73
2023/01/31 08:57:52;;;;;;;20.23;5.83;;;5.20;49.10;;;;;;4992588;28;20796;-70
2023/01/31 09:00:19;;;;;;;10.17;4.23;;;5.20;65.00;;;;;;4992710;28;20406;-74
2023/01/31 09:02:51;;;;;;;23.27;4.83;;;5.20;77.50;;;;;;4992440;28;20503;-74
2023/01/31 09:05:17;;;;;;;11.10;6.67;;;5.10;78.50;;;;;;4990456;28;20540;-68
2023/01/31 09:07:43;;;;;;;11.27;4.90;;;5.10;92.20;;;;;;4992609;28;20505;-71
2023/01/31 09:10:09;;;;;;;11.03;4.23;;;5.10;99.90;;;;;;4992174;28;20571;-71
2023/01/31 09:12:35;;;;;;;15.27;4.30;;;5.20;99.90;;;;;;4980829;28;20196;-73
2023/01/31 09:15:02;;;;;;;20.03;5.23;;;5.10;99.90;;;;;;4971990;28;20433;-73
2023/01/31 09:17:28;;;;;;;11.60;4.50;;;5.10;99.90;;;;;;4990421;28;20193;-70
2023/01/31 09:19:54;;;;;;;16.47;4.83;;;5.10;99.90;;;;;;4992208;28;20466;-69
2023/01/31 09:22:21;;;;;;;9.90;4.13;;;5.20;99.90;;;;;;4986062;28;20448;-69
2023/01/31 09:24:47;;;;;;;8.50;4.37;;;5.20;99.90;;;;;;4969837;28;20214;-73
2023/01/31 09:27:13;;;;;;;6.23;3.27;;;5.30;99.90;;;;;;4972790;28;20517;-70
2023/01/31 09:29:39;;;;;;;6.93;4.20;;;5.20;99.90;;;;;;4972132;28;20449;-75
2023/01/31 09:32:04;;;;;;;9.33;5.60;;;5.20;99.90;;;;;;4971812;28;20447;-71
2023/01/31 09:34:30;;;;;;;5.97;4.27;;;5.10;99.90;;;;;;4971455;28;20671;-74
2023/01/31 09:36:56;;;;;;;9.80;3.43;;;5.10;99.90;;;;;;4971991;28;20640;-73
2023/01/31 09:39:23;;;;;;;5.73;3.60;;;5.20;99.90;;;;;;4972441;28;20984;-74
2023/01/31 09:42:00;;;;;;;5.60;3.20;;;5.10;99.90;;;;;;4971867;28;20852;-73
2023/01/31 09:44:31;;;;;;;6.57;4.17;;;5.20;99.90;;;;;;4971515;28;20456;-71
2023/01/31 09:47:07;;;;;;;5.77;3.50;;;5.20;99.90;;;;;;4972433;28;20500;-74
2023/01/31 09:49:50;;;;;;;7.37;4.30;;;5.20;99.90;;;;;;4987697;28;20522;-72
2023/01/31 09:52:16;;;;;;;5.50;3.43;;;5.20;99.90;;;;;;4973261;28;20442;-73
2023/01/31 09:54:44;;;;;;;7.90;4.10;;;5.20;99.90;;;;;;4970429;28;20457;-73
2023/01/31 09:57:12;;;;;;;4.23;3.60;;;5.20;99.90;;;;;;4971721;28;20798;-69
2023/01/31 09:59:59;;;;;;;11.67;3.67;;;5.30;99.90;;;;;;4987834;28;20495;-70
2023/01/31 10:02:27;;;;;;;3.93;3.33;;;5.20;99.90;;;;;;4971550;28;20436;-72
2023/01/31 10:05:30;;;;;;;2.90;2.60;;;5.30;99.90;;;;;;4983818;28;20459;-71
2023/01/31 10:08:19;;;;;;;4.03;2.70;;;5.30;99.90;;;;;;4988374;28;20868;-71
2023/01/31 10:10:50;;;;;;;7.80;3.50;;;5.40;99.90;;;;;;4975110;28;20450;-71
2023/01/31 10:13:23;;;;;;;8.63;3.70;;;5.40;99.90;;;;;;4971967;28;20475;-68
2023/01/31 10:15:56;;;;;;;4.80;3.90;;;5.50;99.90;;;;;;4970953;28;20444;-70
2023/01/31 10:18:25;;;;;;;5.73;2.73;;;5.50;99.90;;;;;;4972062;28;20480;-70
2023/01/31 10:21:03;;;;;;;4.77;3.00;;;5.50;99.90;;;;;;4971485;28;20470;-71
2023/01/31 10:23:37;;;;;;;4.40;4.10;;;5.60;99.90;;;;;;4971235;28;20402;-71
2023/01/31 10:26:15;;;;;;;2.90;2.70;;;5.60;99.90;;;;;;4970948;28;20420;-70
2023/01/31 10:29:08;;;;;;;4.37;3.37;;;5.60;99.90;;;;;;4970600;28;20424;-72
2023/01/31 10:32:04;;;;;;;3.90;3.20;;;5.60;99.90;;;;;;4968507;28;20440;-71
2023/01/31 10:34:41;;;;;;;3.70;3.00;;;5.70;99.90;;;;;;4986532;28;20843;-71
2023/01/31 10:37:38;;;;;;;2.97;2.67;;;5.80;99.90;;;;;;4971575;28;20766;-71
2023/01/31 10:40:15;;;;;;;5.43;2.87;;;5.80;99.90;;;;;;4971076;28;20561;-71
2023/01/31 10:42:45;;;;;;;3.10;2.90;;;5.90;99.90;;;;;;4972624;28;20850;-72
2023/01/31 10:45:17;;;;;;;2.53;2.33;;;6.00;99.90;;;;;;4989032;28;20446;-69
2023/01/31 10:47:59;;;;;;;6.63;3.03;;;6.00;99.90;;;;;;4990840;28;20405;-71
2023/01/31 10:50:31;;;;;;;4.37;2.60;;;6.00;99.90;;;;;;4982638;28;20493;-71
2023/01/31 10:53:14;;;;;;;4.80;2.23;;;6.00;99.90;;;;;;4969877;28;20436;-69
2023/01/31 10:55:52;;;;;;;3.13;2.93;;;6.10;99.90;;;;;;4970142;28;20524;-71
2023/01/31 10:58:21;;;;;;;3.53;2.90;;;6.10;99.90;;;;;;4971388;28;20444;-69
2023/01/31 11:00:48;;;;;;;7.00;2.90;;;6.00;99.90;;;;;;4971374;28;20907;-68
2023/01/31 11:03:15;;;;;;;4.77;2.90;;;6.10;99.90;;;;;;4969649;28;20482;-69
2023/01/31 11:05:49;;;;;;;8.20;3.20;;;6.10;99.90;;;;;;4970220;28;20518;-68
2023/01/31 11:08:35;;;;;;;3.23;2.30;;;6.10;99.90;;;;;;4971334;28;20925;-68
2023/01/31 11:11:12;;;;;;;4.33;2.10;;;6.20;99.90;;;;;;4970158;28;20427;-69
2023/01/31 11:13:39;;;;;;;4.83;2.70;;;6.20;99.90;;;;;;4975379;28;20483;-71
2023/01/31 11:16:10;;;;;;;3.27;2.13;;;6.20;99.90;;;;;;4989624;28;20829;-70
2023/01/31 11:18:48;;;;;;;3.03;2.37;;;6.30;99.90;;;;;;4990528;28;20449;-71
2023/01/31 11:21:30;;;;;;;2.63;2.43;;;6.30;99.90;;;;;;4987682;28;20413;-72
2023/01/31 11:24:04;;;;;;;4.30;2.13;;;6.30;99.90;;;;;;4986885;28;20448;-69
2023/01/31 11:26:37;;;;;;;14.43;2.47;;;6.30;99.90;;;;;;4968757;28;20548;-69
2023/01/31 11:29:15;;;;;;;5.07;2.13;;;6.30;99.90;;;;;;4971098;28;20442;-71
2023/01/31 11:31:44;;;;;;;5.53;2.23;;;6.30;99.90;;;;;;4970562;28;20515;-72
2023/01/31 11:34:22;;;;;;;4.83;2.53;;;6.30;1.00;;;;;;4970694;28;20413;-71
2023/01/31 11:36:48;;;;;;;5.27;2.90;;;6.30;1.00;;;;;;4970941;28;20469;-71
2023/01/31 11:39:30;;;;;;;2.40;2.27;;;6.30;1.00;;;;;;4969614;28;20467;-70
2023/01/31 11:41:56;;;;;;;2.90;2.60;;;6.40;1.00;;;;;;4970874;28;20176;-72
2023/01/31 11:44:22;;;;;;;2.43;2.17;;;6.40;1.00;;;;;;4969968;28;20406;-72
2023/01/31 11:46:55;;;;;;;2.70;2.00;;;6.40;1.00;;;;;;4970845;28;20789;-72
2023/01/31 11:49:40;;;;;;;2.40;2.20;;;6.50;1.00;;;;;;4970393;28;20763;-71
2023/01/31 11:52:19;;;;;;;4.50;3.00;;;6.50;1.00;;;;;;4970044;28;20475;-73
2023/01/31 11:54:53;;;;;;;4.77;2.70;;;6.50;1.00;;;;;;4969032;28;20459;-74
2023/01/31 11:57:27;;;;;;;3.97;2.73;;;6.60;1.00;;;;;;4970612;28;20773;-73
2023/01/31 11:59:56;;;;;;;2.17;1.87;;;6.60;1.00;;;;;;4979795;28;20474;-72
2023/01/31 12:02:40;;;;;;;6.67;2.93;;;6.50;1.00;;;;;;4990097;28;20406;-72
2023/01/31 12:05:15;;;;;;;4.43;3.17;;;6.60;1.00;;;;;;4988970;28;20428;-74
2023/01/31 12:07:48;;;;;;;3.03;2.50;;;6.60;1.00;;;;;;4990148;28;20412;-71
2023/01/31 12:10:33;;;;;;;3.17;2.30;;;6.70;1.00;;;;;;4987720;28;21140;-70
2023/01/31 12:13:12;;;;;;;1.90;1.80;;;6.70;1.00;;;;;;4989764;28;20538;-72
2023/01/31 12:16:05;;;;;;;3.40;2.43;;;6.70;1.00;;;;;;4991710;28;20474;-73
2023/01/31 12:18:33;;;;;;;3.23;2.00;;;6.80;1.00;;;;;;4990105;28;20592;-73
2023/01/31 12:21:15;;;;;;;2.53;2.33;;;6.80;1.00;;;;;;4993231;28;20819;-71
2023/01/31 12:24:08;;;;;;;6.30;2.73;;;6.80;1.00;;;;;;4993251;28;20400;-72
2023/01/31 12:26:48;;;;;;;2.03;1.93;;;6.90;1.00;;;;;;4992353;28;20400;-70
2023/01/31 12:29:26;;;;;;;2.77;2.57;;;6.90;1.00;;;;;;4974791;28;20439;-74
2023/01/31 12:31:52;;;;;;;9.03;3.10;;;6.90;1.00;;;;;;4973279;28;20499;-71
2023/01/31 12:34:35;;;;;;;3.87;2.47;;;6.90;1.00;;;;;;4972871;28;20511;-78
2023/01/31 12:37:20;;;;;;;5.53;2.90;;;7.00;1.00;;;;;;4973568;28;20231;-71
2023/01/31 12:40:03;;;;;;;9.73;3.73;;;7.00;1.00;;;;;;4973607;28;20503;-73
2023/01/31 12:42:38;;;;;;;3.90;3.07;;;7.00;1.00;;;;;;4972290;28;20909;-75
2023/01/31 12:45:14;;;;;;;8.20;3.50;;;7.00;1.00;;;;;;4972123;28;20535;-74
2023/01/31 12:47:45;;;;;;;9.47;4.37;;;7.10;1.00;;;;;;4973458;28;20793;-72
2023/01/31 12:50:30;;;;;;;19.53;3.10;;;7.10;1.00;;;;;;4984245;28;20429;-71
2023/01/31 12:53:25;;;;;;;8.57;3.67;;;7.10;1.00;;;;;;5004602;28;20924;-72
2023/01/31 12:56:18;;;;;;;10.63;4.47;;;7.20;1.00;;;;;;4983353;28;20621;-72
2023/01/31 12:58:56;;;;;;;10.90;4.03;;;7.10;1.00;;;;;;4971801;28;20464;-70
2023/01/31 13:01:56;;;;;;;10.73;3.90;;;7.10;1.00;;;;;;4973028;28;20417;-72
2023/01/31 13:04:46;;;;;;;8.03;3.93;;;7.10;1.00;;;;;;4975709;28;20488;-74
2023/01/31 13:07:18;;;;;;;15.83;4.90;;;7.10;1.00;;;;;;4991860;28;20412;-73
2023/01/31 13:09:47;;;;;;;10.13;4.87;;;7.10;1.00;;;;;;4992347;28;20406;-73
2023/01/31 13:12:21;;;;;;;22.03;5.97;;;7.10;1.00;;;;;;4991224;28;20787;-71
2023/01/31 13:15:14;;;;;;;13.53;5.10;;;7.20;1.00;;;;;;4978563;28;20492;-73
2023/01/31 13:17:40;;;;;;;8.43;3.90;;;7.20;1.00;;;;;;4983080;28;20526;-73
2023/01/31 13:20:30;;;;;;;18.77;3.90;;;7.20;1.00;;;;;;4992195;28;20455;-73
2023/01/31 13:23:05;;;;;;;12.13;5.67;;;7.20;1.00;;;;;;4991027;28;20444;-71